sensor_id;sensor_type;location;lat;lon;timestamp;temperature;humidity
30063;DHT22;16889;67.864;24.990;2024-02-15T00:04:11;-11.80;99.90
30063;DHT22;16889;67.864;24.990;2024-02-15T00:08:57;-11.80;99.90
30063;DHT22;16889;67.864;24.990;2024-02-15T00:13:43;-11.80;99.90
30063;DHT22;16889;67.864;24.990;2024-02-15T00:18:31;-11.90;99.90
30063;DHT22;16889;67.864;24.990;2024-02-15T00:23:17;-12.10;99.90
30063;DHT22;16889;67.864;24.990;2024-02-15T00:28:03;-12.00;99.90
30063;DHT22;16889;67.864;24.990;2024-02-15T00:32:49;-12.10;99.90
30063;DHT22;16889;67.864;24.990;2024-02-15T00:37:35;-12.00;99.90
30063;DHT22;16889;67.864;24.990;2024-02-15T00:42:21;-12.00;99.90
30063;DHT22;16889;67.864;24.990;2024-02-15T00:47:11;-12.00;99.90
30063;DHT22;16889;67.864;24.990;2024-02-15T00:51:57;-12.00;99.90
30063;DHT22;16889;67.864;24.990;2024-02-15T00:56:43;-11.90;99.90
30063;DHT22;16889;67.864;24.990;2024-02-15T01:01:29;-12.00;99.90
30063;DHT22;16889;67.864;24.990;2024-02-15T01:06:16;-11.90;99.90
30063;DHT22;16889;67.864;24.990;2024-02-15T01:11:02;-11.90;99.90
30063;DHT22;16889;67.864;24.990;2024-02-15T01:15:49;-12.00;99.90
30063;DHT22;16889;67.864;24.990;2024-02-15T01:20:35;-11.90;99.90
30063;DHT22;16889;67.864;24.990;2024-02-15T01:25:22;-11.90;99.90
30063;DHT22;16889;67.864;24.990;2024-02-15T01:30:08;-11.80;99.90
30063;DHT22;16889;67.864;24.990;2024-02-15T01:34:55;-11.80;99.90
30063;DHT22;16889;67.864;24.990;2024-02-15T01:39:41;-11.70;99.90
30063;DHT22;16889;67.864;24.990;2024-02-15T01:44:27;-11.80;99.90
30063;DHT22;16889;67.864;24.990;2024-02-15T01:49:13;-11.70;99.90
30063;DHT22;16889;67.864;24.990;2024-02-15T01:54:01;-11.70;99.90
30063;DHT22;16889;67.864;24.990;2024-02-15T01:58:48;-11.70;99.90
30063;DHT22;16889;67.864;24.990;2024-02-15T02:03:34;-11.70;99.90
30063;DHT22;16889;67.864;24.990;2024-02-15T02:08:20;-11.60;99.90
30063;DHT22;16889;67.864;24.990;2024-02-15T02:13:09;-11.60;99.90
30063;DHT22;16889;67.864;24.990;2024-02-15T02:17:55;-11.60;99.90
30063;DHT22;16889;67.864;24.990;2024-02-15T02:22:41;-11.60;99.90
30063;DHT22;16889;67.864;24.990;2024-02-15T02:27:32;-11.60;99.90
30063;DHT22;16889;67.864;24.990;2024-02-15T02:32:18;-11.50;99.90
30063;DHT22;16889;67.864;24.990;2024-02-15T02:37:04;-11.50;99.90
30063;DHT22;16889;67.864;24.990;2024-02-15T02:41:51;-11.50;99.90
30063;DHT22;16889;67.864;24.990;2024-02-15T02:46:37;-11.40;99.90
30063;DHT22;16889;67.864;24.990;2024-02-15T02:51:23;-11.20;99.90
30063;DHT22;16889;67.864;24.990;2024-02-15T02:56:09;-11.10;99.90
30063;DHT22;16889;67.864;24.990;2024-02-15T03:00:55;-11.10;99.90
30063;DHT22;16889;67.864;24.990;2024-02-15T03:05:41;-11.20;99.90
30063;DHT22;16889;67.864;24.990;2024-02-15T03:10:27;-11.30;99.90
30063;DHT22;16889;67.864;24.990;2024-02-15T03:15:14;-11.50;99.90
30063;DHT22;16889;67.864;24.990;2024-02-15T03:19:59;-11.50;99.90
30063;DHT22;16889;67.864;24.990;2024-02-15T03:24:46;-11.50;99.90
30063;DHT22;16889;67.864;24.990;2024-02-15T03:29:32;-11.50;99.90
30063;DHT22;16889;67.864;24.990;2024-02-15T03:34:19;-11.50;99.90
30063;DHT22;16889;67.864;24.990;2024-02-15T03:39:07;-11.60;99.90
30063;DHT22;16889;67.864;24.990;2024-02-15T03:43:53;-11.50;99.90
30063;DHT22;16889;67.864;24.990;2024-02-15T03:48:42;-11.40;99.90
30063;DHT22;16889;67.864;24.990;2024-02-15T03:53:29;-11.50;99.90
30063;DHT22;16889;67.864;24.990;2024-02-15T03:58:16;-11.60;99.90
30063;DHT22;16889;67.864;24.990;2024-02-15T04:03:02;-11.60;99.90
30063;DHT22;16889;67.864;24.990;2024-02-15T04:07:50;-11.60;99.90
30063;DHT22;16889;67.864;24.990;2024-02-15T04:12:36;-11.50;99.90
30063;DHT22;16889;67.864;24.990;2024-02-15T04:17:22;-11.60;99.90
30063;DHT22;16889;67.864;24.990;2024-02-15T04:22:09;-11.70;99.90
30063;DHT22;16889;67.864;24.990;2024-02-15T04:26:55;-11.70;99.90
30063;DHT22;16889;67.864;24.990;2024-02-15T04:31:42;-11.70;99.90
30063;DHT22;16889;67.864;24.990;2024-02-15T04:36:28;-11.50;99.90
30063;DHT22;16889;67.864;24.990;2024-02-15T04:41:19;-11.60;99.90
30063;DHT22;16889;67.864;24.990;2024-02-15T04:46:05;-11.60;99.90
30063;DHT22;16889;67.864;24.990;2024-02-15T04:50:53;-11.50;99.90
30063;DHT22;16889;67.864;24.990;2024-02-15T04:55:40;-11.60;99.90
30063;DHT22;16889;67.864;24.990;2024-02-15T05:00:26;-11.60;99.90
30063;DHT22;16889;67.864;24.990;2024-02-15T05:05:12;-11.60;99.90
30063;DHT22;16889;67.864;24.990;2024-02-15T05:09:58;-11.60;99.90
30063;DHT22;16889;67.864;24.990;2024-02-15T05:14:44;-11.70;99.90
30063;DHT22;16889;67.864;24.990;2024-02-15T05:19:30;-11.80;99.90
30063;DHT22;16889;67.864;24.990;2024-02-15T05:24:16;-11.70;99.90
30063;DHT22;16889;67.864;24.990;2024-02-15T05:29:02;-11.60;99.90
30063;DHT22;16889;67.864;24.990;2024-02-15T05:33:51;-11.60;99.90
30063;DHT22;16889;67.864;24.990;2024-02-15T05:38:38;-11.60;99.90
30063;DHT22;16889;67.864;24.990;2024-02-15T05:43:24;-11.50;99.90
30063;DHT22;16889;67.864;24.990;2024-02-15T05:48:11;-11.50;99.90
30063;DHT22;16889;67.864;24.990;2024-02-15T05:52:58;-11.40;99.90
30063;DHT22;16889;67.864;24.990;2024-02-15T05:57:44;-11.30;99.90
30063;DHT22;16889;67.864;24.990;2024-02-15T06:02:31;-11.20;99.90
30063;DHT22;16889;67.864;24.990;2024-02-15T06:07:18;-11.20;99.90
30063;DHT22;16889;67.864;24.990;2024-02-15T06:12:04;-11.30;99.90
30063;DHT22;16889;67.864;24.990;2024-02-15T06:16:51;-11.30;99.90
30063;DHT22;16889;67.864;24.990;2024-02-15T06:21:38;-11.40;99.90
30063;DHT22;16889;67.864;24.990;2024-02-15T06:26:25;-11.30;99.90
30063;DHT22;16889;67.864;24.990;2024-02-15T06:31:11;-11.20;99.90
30063;DHT22;16889;67.864;24.990;2024-02-15T06:36:16;-11.20;99.90
30063;DHT22;16889;67.864;24.990;2024-02-15T06:41:20;-11.30;99.90
30063;DHT22;16889;67.864;24.990;2024-02-15T06:46:07;-11.20;99.90
30063;DHT22;16889;67.864;24.990;2024-02-15T06:50:54;-11.10;99.90
30063;DHT22;16889;67.864;24.990;2024-02-15T06:55:40;-11.20;99.90
30063;DHT22;16889;67.864;24.990;2024-02-15T07:00:26;-11.10;99.90
30063;DHT22;16889;67.864;24.990;2024-02-15T07:05:12;-11.10;99.90
30063;DHT22;16889;67.864;24.990;2024-02-15T07:09:58;-11.10;99.90
30063;DHT22;16889;67.864;24.990;2024-02-15T07:14:44;-11.00;99.90
30063;DHT22;16889;67.864;24.990;2024-02-15T07:19:30;-11.10;99.90
30063;DHT22;16889;67.864;24.990;2024-02-15T07:24:19;-10.90;99.90
30063;DHT22;16889;67.864;24.990;2024-02-15T07:29:05;-10.80;99.90
30063;DHT22;16889;67.864;24.990;2024-02-15T07:33:54;-10.70;99.90
30063;DHT22;16889;67.864;24.990;2024-02-15T07:38:40;-10.80;99.90
30063;DHT22;16889;67.864;24.990;2024-02-15T07:43:27;-10.70;99.90
30063;DHT22;16889;67.864;24.990;2024-02-15T07:48:13;-10.60;99.90
30063;DHT22;16889;67.864;24.990;2024-02-15T07:52:59;-10.60;99.90
30063;DHT22;16889;67.864;24.990;2024-02-15T07:57:45;-10.50;99.90
30063;DHT22;16889;67.864;24.990;2024-02-15T08:02:34;-10.40;99.90
30063;DHT22;16889;67.864;24.990;2024-02-15T08:07:20;-10.50;99.90
30063;DHT22;16889;67.864;24.990;2024-02-15T08:12:06;-10.40;99.90
30063;DHT22;16889;67.864;24.990;2024-02-15T08:16:52;-10.50;99.90
30063;DHT22;16889;67.864;24.990;2024-02-15T08:21:38;-10.40;99.90
30063;DHT22;16889;67.864;24.990;2024-02-15T08:26:27;-10.40;99.90
30063;DHT22;16889;67.864;24.990;2024-02-15T08:31:15;-10.40;99.90
30063;DHT22;16889;67.864;24.990;2024-02-15T08:36:02;-10.10;99.90
30063;DHT22;16889;67.864;24.990;2024-02-15T08:40:48;-10.20;99.90
30063;DHT22;16889;67.864;24.990;2024-02-15T08:45:34;-10.10;99.90
30063;DHT22;16889;67.864;24.990;2024-02-15T08:50:20;-10.10;99.90
30063;DHT22;16889;67.864;24.990;2024-02-15T08:55:10;-10.20;99.90
30063;DHT22;16889;67.864;24.990;2024-02-15T09:00:00;-10.10;99.90
30063;DHT22;16889;67.864;24.990;2024-02-15T09:04:46;-10.10;99.90
30063;DHT22;16889;67.864;24.990;2024-02-15T09:09:31;-10.30;99.90
30063;DHT22;16889;67.864;24.990;2024-02-15T09:14:18;-10.40;99.90
30063;DHT22;16889;67.864;24.990;2024-02-15T09:19:04;-10.30;99.90
30063;DHT22;16889;67.864;24.990;2024-02-15T09:23:51;-10.10;99.90
30063;DHT22;16889;67.864;24.990;2024-02-15T09:28:40;-10.20;99.90
30063;DHT22;16889;67.864;24.990;2024-02-15T09:33:26;-10.10;99.90
30063;DHT22;16889;67.864;24.990;2024-02-15T09:38:12;-10.20;99.90
30063;DHT22;16889;67.864;24.990;2024-02-15T09:42:59;-10.30;99.90
30063;DHT22;16889;67.864;24.990;2024-02-15T09:47:45;-10.30;99.90
30063;DHT22;16889;67.864;24.990;2024-02-15T09:52:33;-10.20;99.90
30063;DHT22;16889;67.864;24.990;2024-02-15T09:57:21;-10.00;99.90
30063;DHT22;16889;67.864;24.990;2024-02-15T10:02:07;-10.00;99.90
30063;DHT22;16889;67.864;24.990;2024-02-15T10:06:56;-10.00;99.90
30063;DHT22;16889;67.864;24.990;2024-02-15T10:11:53;-10.00;99.90
30063;DHT22;16889;67.864;24.990;2024-02-15T10:16:43;-10.00;99.90
30063;DHT22;16889;67.864;24.990;2024-02-15T10:21:30;-10.10;99.90
30063;DHT22;16889;67.864;24.990;2024-02-15T10:26:19;-10.00;99.90
30063;DHT22;16889;67.864;24.990;2024-02-15T10:31:08;-10.00;99.90
30063;DHT22;16889;67.864;24.990;2024-02-15T10:36:10;-9.90;99.90
30063;DHT22;16889;67.864;24.990;2024-02-15T10:41:03;-9.90;99.90
30063;DHT22;16889;67.864;24.990;2024-02-15T10:45:55;-9.90;99.90
30063;DHT22;16889;67.864;24.990;2024-02-15T10:50:43;-9.80;99.90
30063;DHT22;16889;67.864;24.990;2024-02-15T10:55:38;-9.80;99.90
30063;DHT22;16889;67.864;24.990;2024-02-15T11:00:27;-9.70;99.90
30063;DHT22;16889;67.864;24.990;2024-02-15T11:05:17;-9.60;99.90
30063;DHT22;16889;67.864;24.990;2024-02-15T11:10:09;-9.80;99.90
30063;DHT22;16889;67.864;24.990;2024-02-15T11:14:56;-9.80;99.90
30063;DHT22;16889;67.864;24.990;2024-02-15T11:19:44;-9.60;99.90
30063;DHT22;16889;67.864;24.990;2024-02-15T11:24:32;-9.50;99.90
30063;DHT22;16889;67.864;24.990;2024-02-15T11:29:53;-9.60;99.90
30063;DHT22;16889;67.864;24.990;2024-02-15T11:34:44;-9.60;99.90
30063;DHT22;16889;67.864;24.990;2024-02-15T11:39:40;-9.30;99.90
30063;DHT22;16889;67.864;24.990;2024-02-15T11:44:27;-9.20;99.90
30063;DHT22;16889;67.864;24.990;2024-02-15T11:49:16;-9.20;99.90
30063;DHT22;16889;67.864;24.990;2024-02-15T11:54:11;-9.10;99.90
30063;DHT22;16889;67.864;24.990;2024-02-15T11:59:04;-9.00;99.90
30063;DHT22;16889;67.864;24.990;2024-02-15T12:03:55;-9.10;99.90
30063;DHT22;16889;67.864;24.990;2024-02-15T12:09:00;-9.00;99.90
30063;DHT22;16889;67.864;24.990;2024-02-15T12:14:04;-9.00;99.90
30063;DHT22;16889;67.864;24.990;2024-02-15T12:19:09;-9.10;99.90
30063;DHT22;16889;67.864;24.990;2024-02-15T12:23:56;-9.20;99.90
30063;DHT22;16889;67.864;24.990;2024-02-15T12:28:43;-9.20;99.90
30063;DHT22;16889;67.864;24.990;2024-02-15T12:33:29;-9.30;99.90
30063;DHT22;16889;67.864;24.990;2024-02-15T12:38:17;-9.40;99.90
30063;DHT22;16889;67.864;24.990;2024-02-15T12:43:10;-9.50;99.90
30063;DHT22;16889;67.864;24.990;2024-02-15T12:47:57;-9.50;99.90
30063;DHT22;16889;67.864;24.990;2024-02-15T12:52:46;-9.60;99.90
30063;DHT22;16889;67.864;24.990;2024-02-15T12:57:33;-9.60;99.90
30063;DHT22;16889;67.864;24.990;2024-02-15T13:02:19;-9.50;99.90
30063;DHT22;16889;67.864;24.990;2024-02-15T13:07:05;-9.40;99.90
30063;DHT22;16889;67.864;24.990;2024-02-15T13:11:52;-9.50;99.90
30063;DHT22;16889;67.864;24.990;2024-02-15T13:16:39;-9.40;99.90
30063;DHT22;16889;67.864;24.990;2024-02-15T13:21:25;-9.50;99.90
30063;DHT22;16889;67.864;24.990;2024-02-15T13:26:15;-9.70;99.90
30063;DHT22;16889;67.864;24.990;2024-02-15T13:31:05;-9.60;99.90
30063;DHT22;16889;67.864;24.990;2024-02-15T13:35:52;-9.50;99.90
30063;DHT22;16889;67.864;24.990;2024-02-15T13:40:38;-9.60;99.90
30063;DHT22;16889;67.864;24.990;2024-02-15T13:45:32;-9.70;99.90
30063;DHT22;16889;67.864;24.990;2024-02-15T13:50:18;-9.70;99.90
30063;DHT22;16889;67.864;24.990;2024-02-15T13:55:05;-9.70;99.90
30063;DHT22;16889;67.864;24.990;2024-02-15T13:59:51;-9.80;99.90
30063;DHT22;16889;67.864;24.990;2024-02-15T14:04:37;-9.70;99.90
30063;DHT22;16889;67.864;24.990;2024-02-15T14:09:24;-9.70;99.90
30063;DHT22;16889;67.864;24.990;2024-02-15T14:14:11;-9.80;99.90
30063;DHT22;16889;67.864;24.990;2024-02-15T14:18:57;-9.90;99.90
30063;DHT22;16889;67.864;24.990;2024-02-15T14:23:43;-9.90;99.90
30063;DHT22;16889;67.864;24.990;2024-02-15T14:28:30;-9.70;99.90
30063;DHT22;16889;67.864;24.990;2024-02-15T14:33:16;-9.60;99.90
30063;DHT22;16889;67.864;24.990;2024-02-15T14:38:06;-9.60;99.90
30063;DHT22;16889;67.864;24.990;2024-02-15T14:42:54;-9.60;99.90
30063;DHT22;16889;67.864;24.990;2024-02-15T14:47:40;-9.50;99.90
30063;DHT22;16889;67.864;24.990;2024-02-15T14:52:28;-9.40;99.90
30063;DHT22;16889;67.864;24.990;2024-02-15T14:57:13;-9.50;99.90
30063;DHT22;16889;67.864;24.990;2024-02-15T15:02:00;-9.50;99.90
30063;DHT22;16889;67.864;24.990;2024-02-15T15:06:54;-9.60;99.90
30063;DHT22;16889;67.864;24.990;2024-02-15T15:11:58;-9.60;99.90
30063;DHT22;16889;67.864;24.990;2024-02-15T15:17:04;-9.60;99.90
30063;DHT22;16889;67.864;24.990;2024-02-15T15:21:49;-9.80;99.90
30063;DHT22;16889;67.864;24.990;2024-02-15T15:26:35;-9.90;99.90
30063;DHT22;16889;67.864;24.990;2024-02-15T15:31:22;-9.70;99.90
30063;DHT22;16889;67.864;24.990;2024-02-15T15:36:08;-9.60;99.90
30063;DHT22;16889;67.864;24.990;2024-02-15T15:40:54;-9.60;99.90
30063;DHT22;16889;67.864;24.990;2024-02-15T15:45:40;-9.50;99.90
30063;DHT22;16889;67.864;24.990;2024-02-15T15:50:26;-9.40;99.90
30063;DHT22;16889;67.864;24.990;2024-02-15T15:55:14;-9.50;99.90
30063;DHT22;16889;67.864;24.990;2024-02-15T16:00:00;-9.60;99.90
30063;DHT22;16889;67.864;24.990;2024-02-15T16:04:48;-9.60;99.90
30063;DHT22;16889;67.864;24.990;2024-02-15T16:09:34;-9.70;99.90
30063;DHT22;16889;67.864;24.990;2024-02-15T16:14:20;-9.80;99.90
30063;DHT22;16889;67.864;24.990;2024-02-15T16:19:06;-10.00;99.90
30063;DHT22;16889;67.864;24.990;2024-02-15T16:23:52;-9.90;99.90
30063;DHT22;16889;67.864;24.990;2024-02-15T16:28:41;-9.80;99.90
30063;DHT22;16889;67.864;24.990;2024-02-15T16:33:26;-9.90;99.90
30063;DHT22;16889;67.864;24.990;2024-02-15T16:38:13;-9.80;99.90
30063;DHT22;16889;67.864;24.990;2024-02-15T16:42:59;-9.70;99.90
30063;DHT22;16889;67.864;24.990;2024-02-15T16:47:47;-9.70;99.90
30063;DHT22;16889;67.864;24.990;2024-02-15T16:52:41;-9.50;99.90
30063;DHT22;16889;67.864;24.990;2024-02-15T16:57:27;-9.60;99.90
30063;DHT22;16889;67.864;24.990;2024-02-15T17:02:13;-9.50;99.90
30063;DHT22;16889;67.864;24.990;2024-02-15T17:06:59;-9.70;99.90
30063;DHT22;16889;67.864;24.990;2024-02-15T17:11:45;-9.80;99.90
30063;DHT22;16889;67.864;24.990;2024-02-15T17:16:32;-10.00;99.90
30063;DHT22;16889;67.864;24.990;2024-02-15T17:21:18;-10.00;99.90
30063;DHT22;16889;67.864;24.990;2024-02-15T17:26:04;-9.90;99.90
30063;DHT22;16889;67.864;24.990;2024-02-15T17:30:52;-9.90;99.90
30063;DHT22;16889;67.864;24.990;2024-02-15T17:35:38;-9.80;99.90
30063;DHT22;16889;67.864;24.990;2024-02-15T17:40:24;-9.80;99.90
30063;DHT22;16889;67.864;24.990;2024-02-15T17:45:10;-9.80;99.90
30063;DHT22;16889;67.864;24.990;2024-02-15T17:49:56;-9.70;99.90
30063;DHT22;16889;67.864;24.990;2024-02-15T17:54:43;-9.70;99.90
30063;DHT22;16889;67.864;24.990;2024-02-15T17:59:29;-9.80;99.90
30063;DHT22;16889;67.864;24.990;2024-02-15T18:04:15;-9.70;99.90
30063;DHT22;16889;67.864;24.990;2024-02-15T18:09:02;-9.70;99.90
30063;DHT22;16889;67.864;24.990;2024-02-15T18:13:50;-9.70;99.90
30063;DHT22;16889;67.864;24.990;2024-02-15T18:18:36;-9.70;99.90
30063;DHT22;16889;67.864;24.990;2024-02-15T18:23:22;-9.70;99.90
30063;DHT22;16889;67.864;24.990;2024-02-15T18:28:08;-9.60;99.90
30063;DHT22;16889;67.864;24.990;2024-02-15T18:32:54;-9.60;99.90
30063;DHT22;16889;67.864;24.990;2024-02-15T18:37:41;-9.70;99.90
30063;DHT22;16889;67.864;24.990;2024-02-15T18:42:30;-9.70;99.90
30063;DHT22;16889;67.864;24.990;2024-02-15T18:47:16;-9.60;99.90
30063;DHT22;16889;67.864;24.990;2024-02-15T18:52:02;-9.60;99.90
30063;DHT22;16889;67.864;24.990;2024-02-15T18:56:49;-9.70;99.90
30063;DHT22;16889;67.864;24.990;2024-02-15T19:01:43;-9.60;99.90
30063;DHT22;16889;67.864;24.990;2024-02-15T19:06:28;-9.80;99.90
30063;DHT22;16889;67.864;24.990;2024-02-15T19:11:16;-9.80;99.90
30063;DHT22;16889;67.864;24.990;2024-02-15T19:16:02;-9.70;99.90
30063;DHT22;16889;67.864;24.990;2024-02-15T19:20:51;-9.70;99.90
30063;DHT22;16889;67.864;24.990;2024-02-15T19:25:37;-9.70;99.90
30063;DHT22;16889;67.864;24.990;2024-02-15T19:30:22;-9.60;99.90
30063;DHT22;16889;67.864;24.990;2024-02-15T19:35:09;-9.70;99.90
30063;DHT22;16889;67.864;24.990;2024-02-15T19:39:55;-9.60;99.90
30063;DHT22;16889;67.864;24.990;2024-02-15T19:44:41;-9.60;99.90
30063;DHT22;16889;67.864;24.990;2024-02-15T19:49:27;-9.60;99.90
30063;DHT22;16889;67.864;24.990;2024-02-15T19:54:13;-9.70;99.90
30063;DHT22;16889;67.864;24.990;2024-02-15T19:59:00;-9.60;99.90
30063;DHT22;16889;67.864;24.990;2024-02-15T20:03:46;-9.40;99.90
30063;DHT22;16889;67.864;24.990;2024-02-15T20:08:32;-9.50;99.90
30063;DHT22;16889;67.864;24.990;2024-02-15T20:13:18;-9.40;99.90
30063;DHT22;16889;67.864;24.990;2024-02-15T20:18:04;-9.40;99.90
30063;DHT22;16889;67.864;24.990;2024-02-15T20:22:52;-9.40;99.90
30063;DHT22;16889;67.864;24.990;2024-02-15T20:27:38;-9.40;99.90
30063;DHT22;16889;67.864;24.990;2024-02-15T20:32:24;-9.50;99.90
30063;DHT22;16889;67.864;24.990;2024-02-15T20:37:10;-9.60;99.90
30063;DHT22;16889;67.864;24.990;2024-02-15T20:41:55;-9.40;99.90
30063;DHT22;16889;67.864;24.990;2024-02-15T20:46:41;-9.50;99.90
30063;DHT22;16889;67.864;24.990;2024-02-15T20:51:27;-9.30;99.90
30063;DHT22;16889;67.864;24.990;2024-02-15T20:56:13;-9.50;99.90
30063;DHT22;16889;67.864;24.990;2024-02-15T21:00:59;-9.60;99.90
30063;DHT22;16889;67.864;24.990;2024-02-15T21:05:45;-9.50;99.90
30063;DHT22;16889;67.864;24.990;2024-02-15T21:10:31;-9.50;99.90
30063;DHT22;16889;67.864;24.990;2024-02-15T21:15:17;-9.40;99.90
30063;DHT22;16889;67.864;24.990;2024-02-15T21:20:03;-9.40;99.90
30063;DHT22;16889;67.864;24.990;2024-02-15T21:24:49;-9.40;99.90
30063;DHT22;16889;67.864;24.990;2024-02-15T21:29:35;-9.30;99.90
30063;DHT22;16889;67.864;24.990;2024-02-15T21:34:21;-9.40;99.90
30063;DHT22;16889;67.864;24.990;2024-02-15T21:39:07;-9.40;99.90
30063;DHT22;16889;67.864;24.990;2024-02-15T21:43:53;-9.30;99.90
30063;DHT22;16889;67.864;24.990;2024-02-15T21:48:39;-9.20;99.90
30063;DHT22;16889;67.864;24.990;2024-02-15T21:53:25;-9.20;99.90
30063;DHT22;16889;67.864;24.990;2024-02-15T21:58:12;-9.20;99.90
30063;DHT22;16889;67.864;24.990;2024-02-15T22:02:58;-9.20;99.90
30063;DHT22;16889;67.864;24.990;2024-02-15T22:07:47;-9.50;99.90
30063;DHT22;16889;67.864;24.990;2024-02-15T22:12:35;-9.50;99.90
30063;DHT22;16889;67.864;24.990;2024-02-15T22:17:21;-9.40;99.90
30063;DHT22;16889;67.864;24.990;2024-02-15T22:22:07;-9.40;99.90
30063;DHT22;16889;67.864;24.990;2024-02-15T22:26:55;-9.30;99.90
30063;DHT22;16889;67.864;24.990;2024-02-15T22:31:47;-9.20;99.90
30063;DHT22;16889;67.864;24.990;2024-02-15T22:36:32;-9.30;99.90
30063;DHT22;16889;67.864;24.990;2024-02-15T22:41:19;-9.50;99.90
30063;DHT22;16889;67.864;24.990;2024-02-15T22:46:05;-9.40;99.90
30063;DHT22;16889;67.864;24.990;2024-02-15T22:50:52;-9.50;99.90
30063;DHT22;16889;67.864;24.990;2024-02-15T22:55:38;-9.40;99.90
30063;DHT22;16889;67.864;24.990;2024-02-15T23:00:24;-9.30;99.90
30063;DHT22;16889;67.864;24.990;2024-02-15T23:05:11;-9.40;99.90
30063;DHT22;16889;67.864;24.990;2024-02-15T23:09:57;-9.50;99.90
30063;DHT22;16889;67.864;24.990;2024-02-15T23:14:43;-9.50;99.90
30063;DHT22;16889;67.864;24.990;2024-02-15T23:19:30;-9.50;99.90
30063;DHT22;16889;67.864;24.990;2024-02-15T23:24:16;-9.60;99.90
30063;DHT22;16889;67.864;24.990;2024-02-15T23:29:02;-9.50;99.90
30063;DHT22;16889;67.864;24.990;2024-02-15T23:33:48;-9.30;99.90
30063;DHT22;16889;67.864;24.990;2024-02-15T23:38:34;-9.10;99.90
30063;DHT22;16889;67.864;24.990;2024-02-15T23:43:38;-9.00;99.90
30063;DHT22;16889;67.864;24.990;2024-02-15T23:48:24;-8.90;99.90
30063;DHT22;16889;67.864;24.990;2024-02-15T23:53:10;-9.00;99.90
30063;DHT22;16889;67.864;24.990;2024-02-15T23:57:56;-8.90;99.90
